sensor_id;sensor_type;location;lat;lon;timestamp;P1;durP1;ratioP1;P2;durP2;ratioP2
8458;SDS011;4266;48.816;9.154;2022-07-12T00:01:39;4.43;;;3.97;;
8458;SDS011;4266;48.816;9.154;2022-07-12T00:04:04;4.70;;;4.20;;
8458;SDS011;4266;48.816;9.154;2022-07-12T00:06:30;4.23;;;3.93;;
8458;SDS011;4266;48.816;9.154;2022-07-12T00:08:56;5.70;;;3.80;;
8458;SDS011;4266;48.816;9.154;2022-07-12T00:11:21;7.10;;;4.23;;
8458;SDS011;4266;48.816;9.154;2022-07-12T00:13:47;4.20;;;3.90;;
8458;SDS011;4266;48.816;9.154;2022-07-12T00:16:12;4.40;;;4.00;;
8458;SDS011;4266;48.816;9.154;2022-07-12T00:18:38;4.10;;;3.90;;
8458;SDS011;4266;48.816;9.154;2022-07-12T00:21:04;7.73;;;3.67;;
8458;SDS011;4266;48.816;9.154;2022-07-12T00:23:30;3.90;;;3.70;;
8458;SDS011;4266;48.816;9.154;2022-07-12T00:25:55;5.60;;;4.13;;
8458;SDS011;4266;48.816;9.154;2022-07-12T00:28:21;4.70;;;4.40;;
8458;SDS011;4266;48.816;9.154;2022-07-12T00:30:47;4.60;;;4.27;;
8458;SDS011;4266;48.816;9.154;2022-07-12T00:33:13;4.87;;;4.47;;
8458;SDS011;4266;48.816;9.154;2022-07-12T00:35:38;4.17;;;3.87;;
8458;SDS011;4266;48.816;9.154;2022-07-12T00:38:04;4.30;;;3.90;;
8458;SDS011;4266;48.816;9.154;2022-07-12T00:40:30;4.00;;;3.70;;
8458;SDS011;4266;48.816;9.154;2022-07-12T00:42:55;4.33;;;4.00;;
8458;SDS011;4266;48.816;9.154;2022-07-12T00:45:21;4.60;;;4.10;;
8458;SDS011;4266;48.816;9.154;2022-07-12T00:47:47;3.83;;;3.57;;
8458;SDS011;4266;48.816;9.154;2022-07-12T00:50:13;4.47;;;4.07;;
8458;SDS011;4266;48.816;9.154;2022-07-12T00:52:38;4.63;;;4.20;;
8458;SDS011;4266;48.816;9.154;2022-07-12T00:55:05;4.07;;;3.77;;
8458;SDS011;4266;48.816;9.154;2022-07-12T00:57:32;4.07;;;3.87;;
8458;SDS011;4266;48.816;9.154;2022-07-12T00:59:56;4.37;;;3.97;;
8458;SDS011;4266;48.816;9.154;2022-07-12T01:02:23;3.80;;;3.50;;
8458;SDS011;4266;48.816;9.154;2022-07-12T01:04:48;4.20;;;3.90;;
8458;SDS011;4266;48.816;9.154;2022-07-12T01:07:14;3.90;;;3.60;;
8458;SDS011;4266;48.816;9.154;2022-07-12T01:09:40;4.70;;;4.30;;
8458;SDS011;4266;48.816;9.154;2022-07-12T01:12:06;4.97;;;3.83;;
8458;SDS011;4266;48.816;9.154;2022-07-12T01:14:33;4.57;;;4.27;;
8458;SDS011;4266;48.816;9.154;2022-07-12T01:16:59;4.17;;;3.97;;
8458;SDS011;4266;48.816;9.154;2022-07-12T01:19:24;4.13;;;3.80;;
8458;SDS011;4266;48.816;9.154;2022-07-12T01:21:50;5.40;;;4.17;;
8458;SDS011;4266;48.816;9.154;2022-07-12T01:24:16;3.93;;;3.63;;
8458;SDS011;4266;48.816;9.154;2022-07-12T01:26:41;6.33;;;3.80;;
8458;SDS011;4266;48.816;9.154;2022-07-12T01:29:07;4.57;;;4.27;;
8458;SDS011;4266;48.816;9.154;2022-07-12T01:31:33;4.27;;;3.97;;
8458;SDS011;4266;48.816;9.154;2022-07-12T01:33:58;4.60;;;4.30;;
8458;SDS011;4266;48.816;9.154;2022-07-12T01:36:24;3.90;;;3.70;;
8458;SDS011;4266;48.816;9.154;2022-07-12T01:38:49;4.33;;;3.87;;
8458;SDS011;4266;48.816;9.154;2022-07-12T01:41:16;4.33;;;4.00;;
8458;SDS011;4266;48.816;9.154;2022-07-12T01:43:41;4.13;;;3.93;;
8458;SDS011;4266;48.816;9.154;2022-07-12T01:46:07;4.30;;;3.90;;
8458;SDS011;4266;48.816;9.154;2022-07-12T01:48:33;4.37;;;4.07;;
8458;SDS011;4266;48.816;9.154;2022-07-12T01:50:58;4.10;;;3.80;;
8458;SDS011;4266;48.816;9.154;2022-07-12T01:53:24;3.73;;;3.53;;
8458;SDS011;4266;48.816;9.154;2022-07-12T01:55:49;4.10;;;3.80;;
8458;SDS011;4266;48.816;9.154;2022-07-12T01:58:15;4.30;;;3.97;;
8458;SDS011;4266;48.816;9.154;2022-07-12T02:00:41;4.17;;;3.87;;
8458;SDS011;4266;48.816;9.154;2022-07-12T02:03:06;4.27;;;3.97;;
8458;SDS011;4266;48.816;9.154;2022-07-12T02:05:32;4.23;;;3.93;;
8458;SDS011;4266;48.816;9.154;2022-07-12T02:07:58;4.70;;;4.27;;
8458;SDS011;4266;48.816;9.154;2022-07-12T02:10:25;3.77;;;3.57;;
8458;SDS011;4266;48.816;9.154;2022-07-12T02:12:50;3.73;;;3.53;;
8458;SDS011;4266;48.816;9.154;2022-07-12T02:15:16;3.67;;;3.47;;
8458;SDS011;4266;48.816;9.154;2022-07-12T02:17:42;4.00;;;3.73;;
8458;SDS011;4266;48.816;9.154;2022-07-12T02:20:09;4.13;;;3.77;;
8458;SDS011;4266;48.816;9.154;2022-07-12T02:22:34;3.83;;;3.53;;
8458;SDS011;4266;48.816;9.154;2022-07-12T02:25:00;4.83;;;4.33;;
8458;SDS011;4266;48.816;9.154;2022-07-12T02:27:25;3.80;;;3.60;;
8458;SDS011;4266;48.816;9.154;2022-07-12T02:29:51;4.50;;;4.10;;
8458;SDS011;4266;48.816;9.154;2022-07-12T02:32:17;4.23;;;3.93;;
8458;SDS011;4266;48.816;9.154;2022-07-12T02:34:42;3.87;;;3.67;;
8458;SDS011;4266;48.816;9.154;2022-07-12T02:37:08;4.23;;;3.93;;
8458;SDS011;4266;48.816;9.154;2022-07-12T02:39:34;6.13;;;3.87;;
8458;SDS011;4266;48.816;9.154;2022-07-12T02:41:59;3.90;;;3.60;;
8458;SDS011;4266;48.816;9.154;2022-07-12T02:44:26;4.20;;;3.80;;
8458;SDS011;4266;48.816;9.154;2022-07-12T02:46:51;3.50;;;3.30;;
8458;SDS011;4266;48.816;9.154;2022-07-12T02:49:17;3.70;;;3.50;;
8458;SDS011;4266;48.816;9.154;2022-07-12T02:51:42;4.53;;;4.13;;
8458;SDS011;4266;48.816;9.154;2022-07-12T02:54:08;5.43;;;3.80;;
8458;SDS011;4266;48.816;9.154;2022-07-12T02:56:34;3.93;;;3.73;;
8458;SDS011;4266;48.816;9.154;2022-07-12T02:58:59;3.70;;;3.50;;
8458;SDS011;4266;48.816;9.154;2022-07-12T03:01:25;3.80;;;3.60;;
8458;SDS011;4266;48.816;9.154;2022-07-12T03:03:51;3.57;;;3.37;;
8458;SDS011;4266;48.816;9.154;2022-07-12T03:06:17;3.67;;;3.47;;
8458;SDS011;4266;48.816;9.154;2022-07-12T03:08:43;3.83;;;3.63;;
8458;SDS011;4266;48.816;9.154;2022-07-12T03:11:09;4.40;;;3.67;;
8458;SDS011;4266;48.816;9.154;2022-07-12T03:13:35;4.30;;;4.00;;
8458;SDS011;4266;48.816;9.154;2022-07-12T03:16:00;4.17;;;3.87;;
8458;SDS011;4266;48.816;9.154;2022-07-12T03:18:27;3.57;;;3.37;;
8458;SDS011;4266;48.816;9.154;2022-07-12T03:20:52;3.90;;;3.70;;
8458;SDS011;4266;48.816;9.154;2022-07-12T03:23:18;3.70;;;3.50;;
8458;SDS011;4266;48.816;9.154;2022-07-12T03:25:44;4.10;;;3.37;;
8458;SDS011;4266;48.816;9.154;2022-07-12T03:28:10;3.77;;;3.50;;
8458;SDS011;4266;48.816;9.154;2022-07-12T03:30:36;3.70;;;3.50;;
8458;SDS011;4266;48.816;9.154;2022-07-12T03:33:01;3.80;;;3.47;;
8458;SDS011;4266;48.816;9.154;2022-07-12T03:35:27;4.07;;;3.67;;
8458;SDS011;4266;48.816;9.154;2022-07-12T03:37:53;3.80;;;3.60;;
8458;SDS011;4266;48.816;9.154;2022-07-12T03:40:19;4.03;;;3.80;;
8458;SDS011;4266;48.816;9.154;2022-07-12T03:42:44;4.20;;;3.90;;
8458;SDS011;4266;48.816;9.154;2022-07-12T03:45:10;3.80;;;3.60;;
8458;SDS011;4266;48.816;9.154;2022-07-12T03:47:35;4.00;;;3.70;;
8458;SDS011;4266;48.816;9.154;2022-07-12T03:50:03;3.70;;;3.50;;
8458;SDS011;4266;48.816;9.154;2022-07-12T03:52:28;3.93;;;3.63;;
8458;SDS011;4266;48.816;9.154;2022-07-12T03:54:54;3.80;;;3.60;;
8458;SDS011;4266;48.816;9.154;2022-07-12T03:57:20;4.20;;;3.90;;
8458;SDS011;4266;48.816;9.154;2022-07-12T03:59:47;3.57;;;3.27;;
8458;SDS011;4266;48.816;9.154;2022-07-12T04:02:13;3.93;;;3.63;;
8458;SDS011;4266;48.816;9.154;2022-07-12T04:04:38;3.53;;;3.33;;
8458;SDS011;4266;48.816;9.154;2022-07-12T04:07:04;3.67;;;3.47;;
8458;SDS011;4266;48.816;9.154;2022-07-12T04:09:29;4.00;;;3.80;;
8458;SDS011;4266;48.816;9.154;2022-07-12T04:11:55;3.90;;;3.70;;
8458;SDS011;4266;48.816;9.154;2022-07-12T04:14:21;4.60;;;4.30;;
8458;SDS011;4266;48.816;9.154;2022-07-12T04:16:47;4.00;;;3.77;;
8458;SDS011;4266;48.816;9.154;2022-07-12T04:19:13;3.90;;;3.60;;
8458;SDS011;4266;48.816;9.154;2022-07-12T04:21:38;3.83;;;3.60;;
8458;SDS011;4266;48.816;9.154;2022-07-12T04:24:04;3.83;;;3.60;;
8458;SDS011;4266;48.816;9.154;2022-07-12T04:26:30;3.30;;;3.10;;
8458;SDS011;4266;48.816;9.154;2022-07-12T04:28:56;3.73;;;3.50;;
8458;SDS011;4266;48.816;9.154;2022-07-12T04:31:21;3.80;;;3.50;;
8458;SDS011;4266;48.816;9.154;2022-07-12T04:33:47;3.73;;;3.40;;
8458;SDS011;4266;48.816;9.154;2022-07-12T04:36:13;3.63;;;3.33;;
8458;SDS011;4266;48.816;9.154;2022-07-12T04:38:39;3.50;;;3.30;;
8458;SDS011;4266;48.816;9.154;2022-07-12T04:41:05;6.47;;;3.83;;
8458;SDS011;4266;48.816;9.154;2022-07-12T04:43:30;4.07;;;3.77;;
8458;SDS011;4266;48.816;9.154;2022-07-12T04:45:56;3.23;;;3.03;;
8458;SDS011;4266;48.816;9.154;2022-07-12T04:48:21;3.83;;;3.63;;
8458;SDS011;4266;48.816;9.154;2022-07-12T04:50:47;3.73;;;3.53;;
8458;SDS011;4266;48.816;9.154;2022-07-12T04:53:13;3.40;;;3.20;;
8458;SDS011;4266;48.816;9.154;2022-07-12T04:55:38;4.07;;;3.77;;
8458;SDS011;4266;48.816;9.154;2022-07-12T04:58:05;3.17;;;2.90;;
8458;SDS011;4266;48.816;9.154;2022-07-12T05:00:30;3.10;;;2.90;;
8458;SDS011;4266;48.816;9.154;2022-07-12T05:02:56;4.13;;;3.93;;
8458;SDS011;4266;48.816;9.154;2022-07-12T05:05:22;4.40;;;4.00;;
8458;SDS011;4266;48.816;9.154;2022-07-12T05:07:47;3.60;;;3.40;;
8458;SDS011;4266;48.816;9.154;2022-07-12T05:10:13;4.20;;;3.80;;
8458;SDS011;4266;48.816;9.154;2022-07-12T05:12:39;3.60;;;3.30;;
8458;SDS011;4266;48.816;9.154;2022-07-12T05:15:05;3.33;;;3.13;;
8458;SDS011;4266;48.816;9.154;2022-07-12T05:17:31;3.50;;;3.30;;
8458;SDS011;4266;48.816;9.154;2022-07-12T05:19:57;3.37;;;3.15;;
8458;SDS011;4266;48.816;9.154;2022-07-12T05:22:23;3.60;;;3.40;;
8458;SDS011;4266;48.816;9.154;2022-07-12T05:24:49;4.12;;;3.83;;
8458;SDS011;4266;48.816;9.154;2022-07-12T05:27:15;3.85;;;3.55;;
8458;SDS011;4266;48.816;9.154;2022-07-12T05:29:40;4.32;;;3.80;;
8458;SDS011;4266;48.816;9.154;2022-07-12T05:32:06;3.80;;;3.53;;
8458;SDS011;4266;48.816;9.154;2022-07-12T05:34:32;5.47;;;3.25;;
8458;SDS011;4266;48.816;9.154;2022-07-12T05:36:58;3.70;;;3.40;;
8458;SDS011;4266;48.816;9.154;2022-07-12T05:39:24;3.65;;;3.35;;
8458;SDS011;4266;48.816;9.154;2022-07-12T05:41:50;4.25;;;3.80;;
8458;SDS011;4266;48.816;9.154;2022-07-12T05:44:15;3.42;;;3.22;;
8458;SDS011;4266;48.816;9.154;2022-07-12T05:46:41;3.80;;;3.50;;
8458;SDS011;4266;48.816;9.154;2022-07-12T05:49:07;3.47;;;3.28;;
8458;SDS011;4266;48.816;9.154;2022-07-12T05:51:33;3.70;;;3.50;;
8458;SDS011;4266;48.816;9.154;2022-07-12T05:54:05;6.05;;;3.20;;
8458;SDS011;4266;48.816;9.154;2022-07-12T05:56:31;3.40;;;3.20;;
8458;SDS011;4266;48.816;9.154;2022-07-12T05:58:56;3.50;;;3.20;;
8458;SDS011;4266;48.816;9.154;2022-07-12T06:01:23;3.53;;;3.33;;
8458;SDS011;4266;48.816;9.154;2022-07-12T06:03:48;5.28;;;3.55;;
8458;SDS011;4266;48.816;9.154;2022-07-12T06:06:14;4.47;;;3.45;;
8458;SDS011;4266;48.816;9.154;2022-07-12T06:08:40;7.03;;;3.40;;
8458;SDS011;4266;48.816;9.154;2022-07-12T06:11:06;5.03;;;3.42;;
8458;SDS011;4266;48.816;9.154;2022-07-12T06:13:32;3.40;;;3.20;;
8458;SDS011;4266;48.816;9.154;2022-07-12T06:15:58;3.62;;;3.33;;
8458;SDS011;4266;48.816;9.154;2022-07-12T06:18:24;3.17;;;2.97;;
8458;SDS011;4266;48.816;9.154;2022-07-12T06:20:50;2.42;;;2.33;;
8458;SDS011;4266;48.816;9.154;2022-07-12T06:23:16;2.40;;;2.20;;
8458;SDS011;4266;48.816;9.154;2022-07-12T06:25:41;2.62;;;2.40;;
8458;SDS011;4266;48.816;9.154;2022-07-12T06:28:07;2.20;;;2.00;;
8458;SDS011;4266;48.816;9.154;2022-07-12T06:30:33;2.00;;;1.90;;
8458;SDS011;4266;48.816;9.154;2022-07-12T06:33:00;1.92;;;1.83;;
8458;SDS011;4266;48.816;9.154;2022-07-12T06:35:25;1.92;;;1.90;;
8458;SDS011;4266;48.816;9.154;2022-07-12T06:37:52;2.67;;;2.40;;
8458;SDS011;4266;48.816;9.154;2022-07-12T06:40:18;3.00;;;2.30;;
8458;SDS011;4266;48.816;9.154;2022-07-12T06:42:43;6.03;;;2.20;;
8458;SDS011;4266;48.816;9.154;2022-07-12T06:45:09;2.12;;;1.92;;
8458;SDS011;4266;48.816;9.154;2022-07-12T06:47:35;1.98;;;1.87;;
8458;SDS011;4266;48.816;9.154;2022-07-12T06:50:01;3.25;;;2.10;;
8458;SDS011;4266;48.816;9.154;2022-07-12T06:52:26;2.42;;;2.22;;
8458;SDS011;4266;48.816;9.154;2022-07-12T06:54:53;3.50;;;2.08;;
8458;SDS011;4266;48.816;9.154;2022-07-12T06:57:19;1.70;;;1.60;;
8458;SDS011;4266;48.816;9.154;2022-07-12T06:59:44;3.33;;;1.92;;
8458;SDS011;4266;48.816;9.154;2022-07-12T07:02:10;3.65;;;1.70;;
8458;SDS011;4266;48.816;9.154;2022-07-12T07:04:36;1.90;;;1.80;;
8458;SDS011;4266;48.816;9.154;2022-07-12T07:07:02;3.92;;;1.77;;
8458;SDS011;4266;48.816;9.154;2022-07-12T07:09:28;3.33;;;1.70;;
8458;SDS011;4266;48.816;9.154;2022-07-12T07:11:54;1.67;;;1.58;;
8458;SDS011;4266;48.816;9.154;2022-07-12T07:14:19;1.65;;;1.55;;
8458;SDS011;4266;48.816;9.154;2022-07-12T07:16:45;2.15;;;1.30;;
8458;SDS011;4266;48.816;9.154;2022-07-12T07:19:11;1.52;;;1.40;;
8458;SDS011;4266;48.816;9.154;2022-07-12T07:21:36;3.37;;;1.10;;
8458;SDS011;4266;48.816;9.154;2022-07-12T07:24:02;1.00;;;1.00;;
8458;SDS011;4266;48.816;9.154;2022-07-12T07:26:28;1.00;;;1.00;;
8458;SDS011;4266;48.816;9.154;2022-07-12T07:28:54;3.90;;;1.10;;
8458;SDS011;4266;48.816;9.154;2022-07-12T07:31:26;0.85;;;0.85;;
8458;SDS011;4266;48.816;9.154;2022-07-12T07:33:52;1.12;;;1.00;;
8458;SDS011;4266;48.816;9.154;2022-07-12T07:36:17;1.75;;;0.98;;
8458;SDS011;4266;48.816;9.154;2022-07-12T07:38:43;0.80;;;0.80;;
8458;SDS011;4266;48.816;9.154;2022-07-12T07:41:09;0.80;;;0.80;;
8458;SDS011;4266;48.816;9.154;2022-07-12T07:43:35;1.00;;;0.77;;
8458;SDS011;4266;48.816;9.154;2022-07-12T07:46:00;1.00;;;1.00;;
8458;SDS011;4266;48.816;9.154;2022-07-12T07:48:27;0.77;;;0.77;;
8458;SDS011;4266;48.816;9.154;2022-07-12T07:50:53;0.80;;;0.80;;
8458;SDS011;4266;48.816;9.154;2022-07-12T07:53:18;0.90;;;0.90;;
8458;SDS011;4266;48.816;9.154;2022-07-12T07:55:44;0.80;;;0.80;;
8458;SDS011;4266;48.816;9.154;2022-07-12T07:58:09;0.70;;;0.70;;
8458;SDS011;4266;48.816;9.154;2022-07-12T08:00:35;1.00;;;1.00;;
8458;SDS011;4266;48.816;9.154;2022-07-12T08:03:01;1.48;;;0.80;;
8458;SDS011;4266;48.816;9.154;2022-07-12T08:05:27;1.30;;;0.90;;
8458;SDS011;4266;48.816;9.154;2022-07-12T08:07:53;0.93;;;0.93;;
8458;SDS011;4266;48.816;9.154;2022-07-12T08:10:18;0.88;;;0.88;;
8458;SDS011;4266;48.816;9.154;2022-07-12T08:12:44;1.12;;;1.02;;
8458;SDS011;4266;48.816;9.154;2022-07-12T08:15:10;0.80;;;0.80;;
8458;SDS011;4266;48.816;9.154;2022-07-12T08:17:35;1.00;;;1.00;;
8458;SDS011;4266;48.816;9.154;2022-07-12T08:20:03;0.90;;;0.90;;
8458;SDS011;4266;48.816;9.154;2022-07-12T08:22:29;1.27;;;1.27;;
8458;SDS011;4266;48.816;9.154;2022-07-12T08:24:56;0.85;;;0.85;;
8458;SDS011;4266;48.816;9.154;2022-07-12T08:27:21;1.10;;;1.10;;
8458;SDS011;4266;48.816;9.154;2022-07-12T08:29:47;1.77;;;0.98;;
8458;SDS011;4266;48.816;9.154;2022-07-12T08:32:13;2.58;;;1.10;;
8458;SDS011;4266;48.816;9.154;2022-07-12T08:34:38;1.30;;;1.30;;
8458;SDS011;4266;48.816;9.154;2022-07-12T08:37:04;1.30;;;1.20;;
8458;SDS011;4266;48.816;9.154;2022-07-12T08:39:30;1.00;;;1.00;;
8458;SDS011;4266;48.816;9.154;2022-07-12T08:41:55;1.30;;;0.90;;
8458;SDS011;4266;48.816;9.154;2022-07-12T08:44:21;1.45;;;1.23;;
8458;SDS011;4266;48.816;9.154;2022-07-12T08:46:46;1.00;;;1.00;;
8458;SDS011;4266;48.816;9.154;2022-07-12T08:49:12;1.83;;;0.95;;
8458;SDS011;4266;48.816;9.154;2022-07-12T08:51:38;1.25;;;1.08;;
8458;SDS011;4266;48.816;9.154;2022-07-12T08:54:07;1.20;;;1.10;;
8458;SDS011;4266;48.816;9.154;2022-07-12T08:56:36;5.37;;;1.80;;
8458;SDS011;4266;48.816;9.154;2022-07-12T09:01:38;1.48;;;1.40;;
8458;SDS011;4266;48.816;9.154;2022-07-12T09:04:09;1.10;;;1.10;;
8458;SDS011;4266;48.816;9.154;2022-07-12T09:06:34;0.85;;;0.85;;
8458;SDS011;4266;48.816;9.154;2022-07-12T09:08:59;1.10;;;1.10;;
8458;SDS011;4266;48.816;9.154;2022-07-12T09:11:25;1.17;;;1.17;;
8458;SDS011;4266;48.816;9.154;2022-07-12T09:13:52;0.90;;;0.90;;
8458;SDS011;4266;48.816;9.154;2022-07-12T09:16:18;1.00;;;1.00;;
8458;SDS011;4266;48.816;9.154;2022-07-12T09:18:44;3.20;;;1.20;;
8458;SDS011;4266;48.816;9.154;2022-07-12T09:21:10;0.98;;;0.98;;
8458;SDS011;4266;48.816;9.154;2022-07-12T09:23:36;1.08;;;1.02;;
8458;SDS011;4266;48.816;9.154;2022-07-12T09:26:02;1.00;;;1.00;;
8458;SDS011;4266;48.816;9.154;2022-07-12T09:28:27;1.27;;;1.17;;
8458;SDS011;4266;48.816;9.154;2022-07-12T09:30:54;1.35;;;1.15;;
8458;SDS011;4266;48.816;9.154;2022-07-12T09:33:20;0.95;;;0.90;;
8458;SDS011;4266;48.816;9.154;2022-07-12T09:36:00;1.65;;;0.90;;
8458;SDS011;4266;48.816;9.154;2022-07-12T09:38:34;1.08;;;1.00;;
8458;SDS011;4266;48.816;9.154;2022-07-12T09:40:59;1.20;;;1.10;;
8458;SDS011;4266;48.816;9.154;2022-07-12T09:43:25;0.80;;;0.80;;
8458;SDS011;4266;48.816;9.154;2022-07-12T09:45:50;2.30;;;0.88;;
8458;SDS011;4266;48.816;9.154;2022-07-12T09:48:16;0.88;;;0.80;;
8458;SDS011;4266;48.816;9.154;2022-07-12T09:50:45;1.20;;;0.80;;
8458;SDS011;4266;48.816;9.154;2022-07-12T09:53:08;1.20;;;1.10;;
8458;SDS011;4266;48.816;9.154;2022-07-12T09:55:34;1.33;;;1.08;;
8458;SDS011;4266;48.816;9.154;2022-07-12T09:58:01;0.77;;;0.77;;
8458;SDS011;4266;48.816;9.154;2022-07-12T10:00:26;1.30;;;1.20;;
8458;SDS011;4266;48.816;9.154;2022-07-12T10:02:51;0.73;;;0.73;;
8458;SDS011;4266;48.816;9.154;2022-07-12T10:05:17;1.27;;;1.15;;
8458;SDS011;4266;48.816;9.154;2022-07-12T10:07:43;1.50;;;1.25;;
8458;SDS011;4266;48.816;9.154;2022-07-12T10:10:08;2.47;;;1.10;;
8458;SDS011;4266;48.816;9.154;2022-07-12T10:12:34;0.85;;;0.85;;
8458;SDS011;4266;48.816;9.154;2022-07-12T10:15:02;0.95;;;0.95;;
8458;SDS011;4266;48.816;9.154;2022-07-12T10:17:27;1.00;;;1.00;;
8458;SDS011;4266;48.816;9.154;2022-07-12T10:22:31;0.80;;;0.80;;
8458;SDS011;4266;48.816;9.154;2022-07-12T10:24:57;0.90;;;0.90;;
8458;SDS011;4266;48.816;9.154;2022-07-12T10:27:27;1.23;;;1.10;;
8458;SDS011;4266;48.816;9.154;2022-07-12T10:29:52;1.00;;;1.00;;
8458;SDS011;4266;48.816;9.154;2022-07-12T10:32:21;0.70;;;0.70;;
8458;SDS011;4266;48.816;9.154;2022-07-12T10:34:58;2.55;;;0.70;;
8458;SDS011;4266;48.816;9.154;2022-07-12T10:37:25;0.90;;;0.70;;
8458;SDS011;4266;48.816;9.154;2022-07-12T10:42:28;0.93;;;0.80;;
8458;SDS011;4266;48.816;9.154;2022-07-12T10:44:54;0.73;;;0.73;;
8458;SDS011;4266;48.816;9.154;2022-07-12T10:47:20;2.42;;;1.20;;
8458;SDS011;4266;48.816;9.154;2022-07-12T10:49:46;1.25;;;1.15;;
8458;SDS011;4266;48.816;9.154;2022-07-12T10:52:13;0.73;;;0.65;;
8458;SDS011;4266;48.816;9.154;2022-07-12T10:54:41;0.75;;;0.75;;
8458;SDS011;4266;48.816;9.154;2022-07-12T10:57:06;0.70;;;0.70;;
8458;SDS011;4266;48.816;9.154;2022-07-12T10:59:33;1.95;;;1.23;;
8458;SDS011;4266;48.816;9.154;2022-07-12T11:01:58;0.98;;;0.98;;
8458;SDS011;4266;48.816;9.154;2022-07-12T11:04:23;0.90;;;0.80;;
8458;SDS011;4266;48.816;9.154;2022-07-12T11:06:50;0.73;;;0.73;;
8458;SDS011;4266;48.816;9.154;2022-07-12T11:09:16;1.05;;;0.90;;
8458;SDS011;4266;48.816;9.154;2022-07-12T11:11:42;2.20;;;2.10;;
8458;SDS011;4266;48.816;9.154;2022-07-12T11:14:07;3.62;;;1.30;;
8458;SDS011;4266;48.816;9.154;2022-07-12T11:16:32;0.80;;;0.80;;
8458;SDS011;4266;48.816;9.154;2022-07-12T11:18:58;0.80;;;0.80;;
8458;SDS011;4266;48.816;9.154;2022-07-12T11:21:24;0.70;;;0.70;;
8458;SDS011;4266;48.816;9.154;2022-07-12T11:23:50;1.15;;;1.15;;
8458;SDS011;4266;48.816;9.154;2022-07-12T11:26:17;2.30;;;0.88;;
8458;SDS011;4266;48.816;9.154;2022-07-12T11:28:44;0.85;;;0.85;;
8458;SDS011;4266;48.816;9.154;2022-07-12T11:31:11;0.82;;;0.70;;
8458;SDS011;4266;48.816;9.154;2022-07-12T11:33:40;0.80;;;0.80;;
8458;SDS011;4266;48.816;9.154;2022-07-12T11:36:05;0.88;;;0.82;;
8458;SDS011;4266;48.816;9.154;2022-07-12T11:38:33;1.67;;;0.70;;
8458;SDS011;4266;48.816;9.154;2022-07-12T11:40:58;0.65;;;0.65;;
8458;SDS011;4266;48.816;9.154;2022-07-12T11:43:24;1.00;;;0.90;;
8458;SDS011;4266;48.816;9.154;2022-07-12T11:45:49;0.60;;;0.60;;
8458;SDS011;4266;48.816;9.154;2022-07-12T11:48:15;0.80;;;0.75;;
8458;SDS011;4266;48.816;9.154;2022-07-12T11:50:42;0.73;;;0.70;;
8458;SDS011;4266;48.816;9.154;2022-07-12T11:53:14;1.95;;;0.77;;
8458;SDS011;4266;48.816;9.154;2022-07-12T11:55:40;0.80;;;0.80;;
8458;SDS011;4266;48.816;9.154;2022-07-12T11:58:03;0.60;;;0.60;;
8458;SDS011;4266;48.816;9.154;2022-07-12T12:00:28;0.73;;;0.73;;
8458;SDS011;4266;48.816;9.154;2022-07-12T12:02:54;1.10;;;0.90;;
8458;SDS011;4266;48.816;9.154;2022-07-12T12:05:20;0.70;;;0.70;;
8458;SDS011;4266;48.816;9.154;2022-07-12T12:07:45;1.75;;;0.90;;
8458;SDS011;4266;48.816;9.154;2022-07-12T12:10:13;0.70;;;0.70;;
8458;SDS011;4266;48.816;9.154;2022-07-12T12:12:43;1.20;;;0.88;;
8458;SDS011;4266;48.816;9.154;2022-07-12T12:15:09;1.02;;;1.02;;
8458;SDS011;4266;48.816;9.154;2022-07-12T12:17:35;0.88;;;0.88;;
8458;SDS011;4266;48.816;9.154;2022-07-12T12:20:38;0.80;;;0.80;;
8458;SDS011;4266;48.816;9.154;2022-07-12T12:22:49;0.70;;;0.70;;
8458;SDS011;4266;48.816;9.154;2022-07-12T12:25:15;3.47;;;1.00;;
8458;SDS011;4266;48.816;9.154;2022-07-12T12:27:44;4.80;;;0.90;;
8458;SDS011;4266;48.816;9.154;2022-07-12T12:30:09;0.95;;;0.90;;
8458;SDS011;4266;48.816;9.154;2022-07-12T12:35:09;0.70;;;0.70;;
8458;SDS011;4266;48.816;9.154;2022-07-12T12:37:34;1.75;;;0.70;;
8458;SDS011;4266;48.816;9.154;2022-07-12T12:40:01;0.88;;;0.88;;
8458;SDS011;4266;48.816;9.154;2022-07-12T12:42:26;0.77;;;0.77;;
8458;SDS011;4266;48.816;9.154;2022-07-12T12:44:51;1.00;;;0.90;;
8458;SDS011;4266;48.816;9.154;2022-07-12T12:47:17;0.90;;;0.90;;
8458;SDS011;4266;48.816;9.154;2022-07-12T12:49:50;0.60;;;0.60;;
8458;SDS011;4266;48.816;9.154;2022-07-12T12:52:15;0.80;;;0.80;;
8458;SDS011;4266;48.816;9.154;2022-07-12T12:54:41;0.73;;;0.73;;
8458;SDS011;4266;48.816;9.154;2022-07-12T12:57:07;2.85;;;0.70;;
8458;SDS011;4266;48.816;9.154;2022-07-12T12:59:33;0.88;;;0.88;;
8458;SDS011;4266;48.816;9.154;2022-07-12T13:01:58;0.60;;;0.60;;
8458;SDS011;4266;48.816;9.154;2022-07-12T13:04:28;0.70;;;0.68;;
8458;SDS011;4266;48.816;9.154;2022-07-12T13:06:54;1.10;;;0.60;;
8458;SDS011;4266;48.816;9.154;2022-07-12T13:09:20;0.60;;;0.60;;
8458;SDS011;4266;48.816;9.154;2022-07-12T13:11:46;1.50;;;0.80;;
8458;SDS011;4266;48.816;9.154;2022-07-12T13:14:11;1.65;;;0.70;;
8458;SDS011;4266;48.816;9.154;2022-07-12T13:16:37;0.70;;;0.70;;
8458;SDS011;4266;48.816;9.154;2022-07-12T13:19:03;1.25;;;0.80;;
8458;SDS011;4266;48.816;9.154;2022-07-12T13:21:29;0.80;;;0.80;;
8458;SDS011;4266;48.816;9.154;2022-07-12T13:23:55;1.17;;;0.85;;
8458;SDS011;4266;48.816;9.154;2022-07-12T13:26:20;2.22;;;0.75;;
8458;SDS011;4266;48.816;9.154;2022-07-12T13:28:46;1.23;;;0.82;;
8458;SDS011;4266;48.816;9.154;2022-07-12T13:31:11;0.82;;;0.60;;
8458;SDS011;4266;48.816;9.154;2022-07-12T13:33:38;0.93;;;0.70;;
8458;SDS011;4266;48.816;9.154;2022-07-12T13:36:04;0.80;;;0.80;;
8458;SDS011;4266;48.816;9.154;2022-07-12T13:38:29;1.10;;;1.00;;
8458;SDS011;4266;48.816;9.154;2022-07-12T13:40:55;1.10;;;0.90;;
8458;SDS011;4266;48.816;9.154;2022-07-12T13:43:21;3.30;;;0.90;;
8458;SDS011;4266;48.816;9.154;2022-07-12T13:45:49;0.82;;;0.82;;
8458;SDS011;4266;48.816;9.154;2022-07-12T13:48:12;0.70;;;0.70;;
8458;SDS011;4266;48.816;9.154;2022-07-12T13:50:38;0.75;;;0.75;;
8458;SDS011;4266;48.816;9.154;2022-07-12T13:53:04;1.95;;;0.80;;
8458;SDS011;4266;48.816;9.154;2022-07-12T13:55:30;10.10;;;1.00;;
8458;SDS011;4266;48.816;9.154;2022-07-12T13:57:56;0.80;;;0.80;;
8458;SDS011;4266;48.816;9.154;2022-07-12T14:00:22;0.73;;;0.73;;
8458;SDS011;4266;48.816;9.154;2022-07-12T14:02:49;0.90;;;0.90;;
8458;SDS011;4266;48.816;9.154;2022-07-12T14:05:14;1.55;;;0.85;;
8458;SDS011;4266;48.816;9.154;2022-07-12T14:07:41;2.72;;;0.90;;
8458;SDS011;4266;48.816;9.154;2022-07-12T14:10:06;0.70;;;0.70;;
8458;SDS011;4266;48.816;9.154;2022-07-12T14:12:32;3.10;;;0.90;;
8458;SDS011;4266;48.816;9.154;2022-07-12T14:14:58;0.70;;;0.70;;
8458;SDS011;4266;48.816;9.154;2022-07-12T14:17:30;0.70;;;0.70;;
8458;SDS011;4266;48.816;9.154;2022-07-12T14:19:56;0.68;;;0.68;;
8458;SDS011;4266;48.816;9.154;2022-07-12T14:22:21;0.80;;;0.80;;
8458;SDS011;4266;48.816;9.154;2022-07-12T14:24:47;0.80;;;0.80;;
8458;SDS011;4266;48.816;9.154;2022-07-12T14:27:12;4.93;;;0.90;;
8458;SDS011;4266;48.816;9.154;2022-07-12T14:29:38;1.00;;;0.90;;
8458;SDS011;4266;48.816;9.154;2022-07-12T14:32:04;1.85;;;0.70;;
8458;SDS011;4266;48.816;9.154;2022-07-12T14:34:30;0.95;;;0.90;;
8458;SDS011;4266;48.816;9.154;2022-07-12T14:36:56;0.73;;;0.73;;
8458;SDS011;4266;48.816;9.154;2022-07-12T14:39:21;1.73;;;0.98;;
8458;SDS011;4266;48.816;9.154;2022-07-12T14:41:47;1.05;;;0.80;;
8458;SDS011;4266;48.816;9.154;2022-07-12T14:44:13;0.70;;;0.70;;
8458;SDS011;4266;48.816;9.154;2022-07-12T14:46:38;1.10;;;0.77;;
8458;SDS011;4266;48.816;9.154;2022-07-12T14:49:04;1.37;;;1.00;;
8458;SDS011;4266;48.816;9.154;2022-07-12T14:51:30;1.25;;;0.80;;
8458;SDS011;4266;48.816;9.154;2022-07-12T14:53:55;0.95;;;0.95;;
8458;SDS011;4266;48.816;9.154;2022-07-12T14:56:21;3.65;;;1.10;;
8458;SDS011;4266;48.816;9.154;2022-07-12T14:58:46;3.03;;;1.08;;
8458;SDS011;4266;48.816;9.154;2022-07-12T15:01:12;0.85;;;0.85;;
8458;SDS011;4266;48.816;9.154;2022-07-12T15:03:38;0.90;;;0.90;;
8458;SDS011;4266;48.816;9.154;2022-07-12T15:06:03;3.50;;;1.15;;
8458;SDS011;4266;48.816;9.154;2022-07-12T15:08:30;1.02;;;1.02;;
8458;SDS011;4266;48.816;9.154;2022-07-12T15:10:56;2.53;;;1.05;;
8458;SDS011;4266;48.816;9.154;2022-07-12T15:13:21;1.98;;;0.73;;
8458;SDS011;4266;48.816;9.154;2022-07-12T15:15:47;0.70;;;0.70;;
8458;SDS011;4266;48.816;9.154;2022-07-12T15:18:13;1.10;;;1.00;;